Domov               UVHVVR             MKGP            O straneh              
ZDRAVSTVENO VARSTVO RASTLIN
  MREŽA AGROMET. POSTAJ
 ► PROGNOSTIČNA OBVESTILA
AGROMETEOROLOŠKI PODATKI -
ARSO
OBVLADOVANJE TVEGANJ ZARADI
NEUGODNIH VREMENSKIH RAZMER
  ► NARAVNE NESREČE
  ► SUŠA/MOČA
  ► NAMAKANJE
  ► ŽLED (gozdarstvo)
KARTOGRAFSKI PRIKAZI
SPLETNE POVEZAVE
PROJEKTI IN PUBLIKACIJE

AGROMETEOROLOŠKA MREŽA: VREMENSKE POSTAJE IN FENOLOŠKA OPAZOVANJA

Pregled podatkov za lokacijo Črnova (Gradišnik), meteorološka postaja 22213

Pregled senzorjev na lokaciji

ID Ime Zadnja
vrednost
Datum
zadnje
spremembe
Tip
senzorja
4194 Temperatura 2 m ( °C) 17,05 °C 19.8.2017 20:00 Generic -40 - +60 °C
4195 Relativna vlaga 2 m (% RH) 91,72 % RH 19.8.2017 20:00 Generic 0 - 100 %
4196 Omočenost lista (U) 0 U 19.8.2017 20:00 A730WET
4197 Padavine 0.2 mm (mm) 0 mm 19.8.2017 20:00 Generic 0.2 mm

Pregled podatkov zadnjih 24 ur

Zap.
št.
Datum in čas Črnova (Gradišnik)
Omočenost
lista
Padavine
0.2
mm
Relativna
vlaga
2
m
Temperatura
2
m
0 19.8.2017 19:00 0 0 91,72 17,05
1 19.8.2017 18:30 0 0 92,19 17,48
2 19.8.2017 18:00 0 0,2 91,82 18,27
3 19.8.2017 17:30 7 0 90,89 18,93
4 19.8.2017 17:00 10 0 91,5 19,34
5 19.8.2017 16:30 10 0 94,29 19,17
6 19.8.2017 16:00 10 0,2 94,09 19,27
7 19.8.2017 15:30 10 0 91,43 19,73
8 19.8.2017 15:00 10 0 92,06 19,68
9 19.8.2017 14:30 10 0 93,63 19,93
10 19.8.2017 14:00 10 1 92,06 19,41
11 19.8.2017 13:30 10 0 93,31 19,63
12 19.8.2017 13:00 10 1,2 91,04 19,63
13 19.8.2017 12:30 3 0,6 70,01 22,56
14 19.8.2017 12:00 0 0 57,29 24,47
15 19.8.2017 11:30 0 0 54,82 25,23
16 19.8.2017 11:00 0 0 54,31 25,49
17 19.8.2017 10:30 0 0 51,62 26,52
18 19.8.2017 10:00 0 0 53,77 26,37
19 19.8.2017 09:30 0 0 60,61 24,52
20 19.8.2017 09:00 0 0 60,49 24,79
21 19.8.2017 08:30 0 0 57,29 25,76
22 19.8.2017 08:00 0 0 58,97 24,98
23 19.8.2017 07:30 0 0 65,86 22,69
24 19.8.2017 07:00 0 0 77,75 19,22
25 19.8.2017 06:30 0 0 78,36 18,61
26 19.8.2017 06:00 0 0 83,05 17,24
27 19.8.2017 05:30 0 0 83,91 17
28 19.8.2017 05:00 0 0 81,71 17,61
29 19.8.2017 04:30 0 0 78,95 17,88
30 19.8.2017 04:00 0 0 74,9 18,83
31 19.8.2017 03:30 0 0 78,14 18,27
32 19.8.2017 03:00 0 0 78,71 17,85
33 19.8.2017 02:30 0 0 77,19 18,05
34 19.8.2017 02:00 0 0 75,41 18,58
35 19.8.2017 01:30 0 0 72,87 19,07
36 19.8.2017 01:00 0 0 71,92 19,27
37 19.8.2017 00:30 0 0 67,59 20,44
38 19.8.2017 00:00 0 0 66,2 20,59
39 18.8.2017 23:30 0 0 66,64 20,76
40 18.8.2017 23:00 0 0 64,2 21,44
41 18.8.2017 22:30 0 0 60,49 22,22
42 18.8.2017 22:00 0 0 54,53 23,57
43 18.8.2017 21:30 0 0 51,33 24,35
44 18.8.2017 21:00 0 0 51,72 24,37
© 2011 Ministrstvo za kmetijstvo, gozdarstvo in prehrano. Vse pravice pridržane.